createdAt,value
2019-02-25T00:08:42.393Z,1.07
2019-02-25T00:18:54.288Z,1.19
2019-02-25T00:29:07.406Z,1.10
2019-02-25T00:39:19.304Z,1.13
2019-02-25T00:49:31.812Z,1.07
2019-02-25T00:59:44.517Z,0.82
2019-02-25T01:09:56.933Z,0.87
2019-02-25T01:20:08.734Z,0.68
2019-02-25T01:30:21.985Z,0.74
2019-02-25T01:40:33.736Z,0.71
2019-02-25T01:50:46.025Z,0.57
2019-02-25T02:00:57.720Z,0.30
2019-02-25T02:11:10.360Z,0.03
2019-02-25T02:21:22.000Z,-0.06
2019-02-25T02:31:35.582Z,0.33
2019-02-25T02:41:48.556Z,0.35
2019-02-25T02:52:01.152Z,0.31
2019-02-25T03:02:15.457Z,0.33
2019-02-25T03:12:27.913Z,0.18
2019-02-25T03:22:40.604Z,0.17
2019-02-25T03:32:52.558Z,-0.12
2019-02-25T03:43:04.703Z,-0.04
2019-02-25T03:53:17.610Z,0.08
2019-02-25T04:03:29.845Z,0.20
2019-02-25T04:13:41.974Z,-0.30
2019-02-25T04:23:53.484Z,-0.88
2019-02-25T04:34:08.062Z,-0.22
2019-02-25T04:44:21.162Z,-0.29
2019-02-25T04:54:34.243Z,-0.36
2019-02-25T05:04:46.107Z,-0.47
2019-02-25T05:14:57.847Z,-0.56
2019-02-25T05:25:10.417Z,-0.50
2019-02-25T05:35:22.214Z,-0.29
2019-02-25T05:45:33.844Z,-0.65
2019-02-25T05:55:46.420Z,-0.58
2019-02-25T06:05:57.919Z,-0.84
2019-02-25T06:16:10.108Z,-0.82
2019-02-25T06:26:22.577Z,-0.81
2019-02-25T06:36:34.535Z,-0.99
2019-02-25T06:46:47.418Z,-0.72
2019-02-25T06:57:00.657Z,-0.55
2019-02-25T07:07:12.018Z,-0.26
2019-02-25T07:17:24.151Z,1.89
2019-02-25T07:27:36.368Z,2.56
2019-02-25T07:37:47.988Z,2.96
2019-02-25T07:47:59.969Z,3.86
2019-02-25T07:58:11.686Z,3.68
2019-02-25T08:08:24.605Z,4.43
2019-02-25T08:18:36.108Z,5.04
2019-02-25T08:28:48.043Z,4.15
2019-02-25T08:39:00.488Z,2.88
2019-02-25T08:49:12.054Z,3.75
2019-02-25T08:59:23.680Z,5.21
2019-02-25T09:09:36.801Z,4.46
2019-02-25T09:19:49.094Z,4.21
2019-02-25T09:30:01.135Z,4.87
2019-02-25T09:40:13.703Z,5.21
2019-02-25T09:50:25.421Z,5.06
2019-02-25T10:00:37.036Z,5.86
2019-02-25T10:10:50.234Z,7.39
2019-02-25T10:41:36.674Z,7.88
2019-02-25T10:51:43.941Z,9.85
2019-02-25T11:01:57.212Z,10.51
2019-02-25T11:12:00.145Z,9.77
2019-02-25T11:22:02.095Z,9.90
2019-02-25T11:32:03.659Z,10.42
2019-02-25T11:42:06.107Z,10.87
2019-02-25T11:52:07.279Z,11.47
2019-02-25T12:02:08.521Z,13.25
2019-02-25T12:12:11.394Z,12.63
2019-02-25T12:22:12.072Z,12.57
2019-02-25T12:32:15.825Z,13.51
2019-02-25T12:42:16.541Z,13.94
2019-02-25T12:52:34.279Z,14.28
2019-02-25T13:02:33.845Z,14.21
2019-02-25T13:12:34.871Z,14.53
2019-02-25T13:22:40.234Z,15.27
2019-02-25T13:32:41.162Z,15.88
2019-02-25T13:42:41.952Z,16.08
2019-02-25T13:52:48.439Z,17.06
2019-02-25T14:13:09.271Z,17.21
2019-02-25T14:23:09.973Z,16.56
2019-02-25T14:33:12.633Z,16.35
2019-02-25T14:43:15.657Z,17.45
2019-02-25T14:53:17.021Z,17.62
2019-02-25T15:03:18.102Z,16.20
2019-02-25T15:13:24.018Z,17.03
2019-02-25T15:23:36.734Z,17.17
2019-02-25T15:33:51.875Z,19.06
2019-02-25T15:43:53.342Z,17.38
2019-02-25T15:53:55.773Z,17.48
2019-02-25T16:04:02.223Z,17.47
2019-02-25T16:14:03.381Z,17.60
2019-02-25T16:24:08.257Z,17.68
2019-02-25T16:34:11.725Z,17.98
2019-02-25T16:44:12.974Z,17.43
2019-02-25T16:54:18.169Z,16.90
2019-02-25T17:04:20.559Z,13.56
2019-02-25T17:14:21.683Z,12.14
2019-02-25T17:24:24.115Z,11.32
2019-02-25T17:34:26.460Z,10.14
2019-02-25T17:44:29.745Z,9.57
2019-02-25T17:54:31.640Z,8.91
2019-02-25T18:04:36.385Z,8.55
2019-02-25T18:14:39.393Z,7.98
2019-02-25T18:24:43.244Z,7.80
2019-02-25T18:34:43.039Z,7.37
2019-02-25T18:44:44.867Z,7.09
2019-02-25T18:54:57.466Z,7.15
2019-02-25T19:04:59.814Z,6.57
2019-02-25T19:15:15.862Z,6.25
2019-02-25T19:25:25.791Z,6.10
2019-02-25T19:35:28.694Z,6.11
2019-02-25T19:45:29.551Z,5.67
2019-02-25T19:55:40.483Z,5.58
2019-02-25T20:05:43.289Z,5.13
2019-02-25T20:15:42.492Z,4.56
2019-02-25T20:25:48.507Z,4.87
2019-02-25T20:35:51.248Z,5.32
2019-02-25T20:45:54.093Z,5.03
2019-02-25T20:55:54.572Z,4.68
2019-02-25T21:16:20.958Z,4.07
2019-02-25T21:26:25.458Z,4.24
2019-02-25T21:36:25.329Z,4.09
2019-02-25T21:46:27.009Z,4.12
2019-02-25T21:56:37.364Z,3.60
2019-02-25T22:06:38.256Z,3.32
2019-02-25T22:16:44.061Z,3.04
2019-02-25T22:26:41.955Z,3.52
2019-02-25T22:36:44.344Z,3.15
2019-02-25T22:46:49.471Z,2.67
2019-02-25T22:56:50.686Z,2.81
2019-02-25T23:06:53.350Z,2.81
2019-02-25T23:16:53.929Z,2.75
2019-02-25T23:26:55.805Z,3.04
2019-02-25T23:36:57.555Z,2.89
2019-02-25T23:47:00.171Z,2.64
2019-02-25T23:57:09.738Z,2.39
